createdAt,value
2024-01-20T00:02:50.269Z,100947.72
2024-01-20T00:05:02.356Z,100947.73
2024-01-20T00:07:14.953Z,100949.99
2024-01-20T00:09:34.432Z,100954.01
2024-01-20T00:11:50.397Z,100956.36
2024-01-20T00:14:02.309Z,100949.83
2024-01-20T00:16:14.706Z,100953.00
2024-01-20T00:18:27.016Z,100953.36
2024-01-20T00:20:39.516Z,100951.92
2024-01-20T00:22:51.593Z,100951.79
2024-01-20T00:25:04.676Z,100955.52
2024-01-20T00:27:17.437Z,100952.77
2024-01-20T00:29:29.834Z,100953.09
2024-01-20T00:31:42.302Z,100948.60
2024-01-20T00:33:54.852Z,100951.31
2024-01-20T00:36:07.162Z,100953.04
2024-01-20T00:38:19.374Z,100952.27
2024-01-20T00:40:31.860Z,100952.80
2024-01-20T00:42:43.956Z,100954.49
2024-01-20T00:44:55.542Z,100955.17
2024-01-20T00:47:08.408Z,100950.34
2024-01-20T00:49:20.557Z,100947.08
2024-01-20T00:51:32.349Z,100957.08
2024-01-20T00:53:44.246Z,100956.95
2024-01-20T00:55:56.223Z,100961.58
2024-01-20T00:58:08.435Z,100960.04
2024-01-20T01:00:20.530Z,100970.98
2024-01-20T01:02:32.425Z,100965.81
2024-01-20T01:04:45.081Z,100959.04
2024-01-20T01:06:57.027Z,100963.75
2024-01-20T01:09:09.460Z,100966.22
2024-01-20T01:11:20.934Z,100967.83
2024-01-20T01:13:37.063Z,100967.92
2024-01-20T01:15:49.005Z,100971.47
2024-01-20T01:18:01.401Z,100975.71
2024-01-20T01:20:13.667Z,100973.61
2024-01-20T01:22:25.700Z,100974.12
2024-01-20T01:24:39.023Z,100974.38
2024-01-20T01:26:51.202Z,100978.11
2024-01-20T01:29:03.233Z,100977.82
2024-01-20T01:31:15.026Z,100980.33
2024-01-20T01:33:26.838Z,100974.13
2024-01-20T01:35:38.897Z,100976.77
2024-01-20T01:37:50.597Z,100966.79
2024-01-20T01:40:02.730Z,100971.27
2024-01-20T01:42:14.573Z,100974.66
2024-01-20T01:44:26.613Z,100973.08
2024-01-20T01:46:38.313Z,100984.09
2024-01-20T01:48:50.399Z,100982.73
2024-01-20T01:51:05.451Z,100985.74
2024-01-20T01:53:18.289Z,100987.81
2024-01-20T01:55:30.941Z,100992.07
2024-01-20T01:57:44.101Z,100983.39
2024-01-20T01:59:56.122Z,100982.30
2024-01-20T02:02:08.156Z,100986.42
2024-01-20T02:04:20.214Z,100993.60
2024-01-20T02:06:32.589Z,100987.06
2024-01-20T02:08:44.553Z,100984.84
2024-01-20T02:10:58.382Z,100987.96
2024-01-20T02:13:11.925Z,100987.03
2024-01-20T02:15:25.122Z,100993.02
2024-01-20T02:17:37.174Z,100994.92
2024-01-20T02:19:49.079Z,100995.55
2024-01-20T02:22:00.714Z,100997.77
2024-01-20T02:24:13.608Z,100999.80
2024-01-20T02:26:27.739Z,101004.32
2024-01-20T02:28:39.257Z,101014.17
2024-01-20T02:30:51.359Z,101010.59
2024-01-20T02:33:03.811Z,101006.51
2024-01-20T02:35:17.617Z,101010.69
2024-01-20T02:37:29.384Z,101014.80
2024-01-20T02:39:43.324Z,101015.55
2024-01-20T02:41:55.331Z,101015.20
2024-01-20T02:44:10.180Z,101014.55
2024-01-20T02:46:22.076Z,101018.25
2024-01-20T02:48:34.454Z,101022.95
2024-01-20T02:50:46.473Z,101019.61
2024-01-20T02:52:58.261Z,101020.37
2024-01-20T02:55:10.259Z,101021.34
2024-01-20T02:57:22.512Z,101023.39
2024-01-20T02:59:34.550Z,101017.69
2024-01-20T03:01:46.754Z,101019.70
2024-01-20T03:03:58.790Z,101015.52
2024-01-20T03:06:10.985Z,101014.50
2024-01-20T03:08:23.051Z,101014.30
2024-01-20T03:10:35.250Z,101022.23
2024-01-20T03:12:47.350Z,101013.14
2024-01-20T03:14:59.066Z,101012.80
2024-01-20T03:17:10.849Z,101005.08
2024-01-20T03:19:22.990Z,101011.73
2024-01-20T03:21:35.608Z,101004.13
2024-01-20T03:23:47.535Z,101002.31
2024-01-20T03:25:59.525Z,101007.02
2024-01-20T03:28:11.014Z,101012.25
2024-01-20T03:30:22.662Z,101009.30
2024-01-20T03:32:35.209Z,101016.89
2024-01-20T03:34:47.129Z,101009.70
2024-01-20T03:36:58.986Z,101008.84
2024-01-20T03:39:11.035Z,101012.20
2024-01-20T03:41:23.082Z,101017.16
2024-01-20T03:43:35.077Z,101013.58
2024-01-20T03:45:47.486Z,101008.80
2024-01-20T03:47:59.027Z,101017.89
2024-01-20T03:50:11.618Z,101017.55
2024-01-20T03:52:23.675Z,101025.42
2024-01-20T03:54:35.370Z,101020.67
2024-01-20T03:56:47.144Z,101011.73
2024-01-20T03:59:00.262Z,101026.29
2024-01-20T04:01:12.408Z,101032.29
2024-01-20T04:03:24.489Z,101031.35
2024-01-20T04:05:36.556Z,101041.54
2024-01-20T04:07:48.757Z,101038.98
2024-01-20T04:10:01.069Z,101036.23
2024-01-20T04:12:13.015Z,101041.24
2024-01-20T04:14:25.060Z,101041.30
2024-01-20T04:16:37.969Z,101046.39
2024-01-20T04:18:50.262Z,101055.97
2024-01-20T04:21:03.312Z,101060.06
2024-01-20T04:23:15.277Z,101063.14
2024-01-20T04:25:27.273Z,101067.75
2024-01-20T04:27:41.948Z,101066.38
2024-01-20T04:29:53.939Z,101062.20
2024-01-20T04:32:06.434Z,101065.11
2024-01-20T04:34:18.645Z,101076.67
2024-01-20T04:36:30.404Z,101073.95
2024-01-20T04:38:42.313Z,101074.83
2024-01-20T04:40:54.620Z,101078.10
2024-01-20T04:43:06.502Z,101087.61
2024-01-20T04:45:18.685Z,101093.19
2024-01-20T04:47:33.676Z,101084.44
2024-01-20T04:49:45.766Z,101083.51
2024-01-20T04:52:01.755Z,101086.27
2024-01-20T04:54:13.739Z,101084.65
2024-01-20T04:56:25.755Z,101076.63
2024-01-20T04:58:38.869Z,101089.04
2024-01-20T05:00:51.021Z,101089.91
2024-01-20T05:03:03.005Z,101082.06
2024-01-20T05:05:15.416Z,101090.14
2024-01-20T05:07:27.148Z,101079.69
2024-01-20T05:09:39.056Z,101087.66
2024-01-20T05:11:50.838Z,101088.61
2024-01-20T05:14:02.934Z,101087.23
2024-01-20T05:16:14.719Z,101088.02
2024-01-20T05:18:26.400Z,101086.02
2024-01-20T05:20:39.219Z,101091.73
2024-01-20T05:22:51.420Z,101088.20
2024-01-20T05:25:05.052Z,101086.02
2024-01-20T05:27:16.724Z,101080.85
2024-01-20T05:29:28.765Z,101081.39
2024-01-20T05:31:40.524Z,101077.71
2024-01-20T05:33:52.742Z,101067.38
2024-01-20T05:36:05.256Z,101069.82
2024-01-20T05:38:17.233Z,101074.00
2024-01-20T05:40:29.129Z,101079.33
2024-01-20T05:42:41.029Z,101080.67
2024-01-20T05:44:53.256Z,101092.42
2024-01-20T05:47:04.946Z,101098.85
2024-01-20T05:49:16.829Z,101094.24
2024-01-20T05:51:28.545Z,101096.27
2024-01-20T05:53:41.392Z,101107.92
2024-01-20T05:55:52.999Z,101115.42
2024-01-20T05:58:04.882Z,101118.39
2024-01-20T06:00:18.543Z,101120.77
2024-01-20T06:02:32.042Z,101119.27
2024-01-20T06:04:44.422Z,101122.66
2024-01-20T06:06:56.747Z,101124.95
2024-01-20T06:09:08.733Z,101119.04
2024-01-20T06:11:20.638Z,101129.38
2024-01-20T06:13:32.939Z,101133.02
2024-01-20T06:15:44.830Z,101131.06
2024-01-20T06:17:56.823Z,101139.38
2024-01-20T06:20:09.254Z,101145.98
2024-01-20T06:22:21.140Z,101144.62
2024-01-20T06:24:33.556Z,101148.36
2024-01-20T06:26:45.522Z,101144.50
2024-01-20T06:28:57.409Z,101154.03
2024-01-20T06:31:09.122Z,101155.23
2024-01-20T06:33:21.597Z,101160.39
2024-01-20T06:35:33.703Z,101167.11
2024-01-20T06:37:45.695Z,101173.84
2024-01-20T06:39:57.703Z,101174.98
2024-01-20T06:42:12.572Z,101178.41
2024-01-20T06:44:24.549Z,101178.27
2024-01-20T06:46:36.652Z,101177.77
2024-01-20T06:48:48.915Z,101179.92
2024-01-20T06:51:02.212Z,101174.98
2024-01-20T06:53:13.852Z,101184.10
2024-01-20T06:55:26.486Z,101183.10
2024-01-20T06:57:38.128Z,101186.43
2024-01-20T06:59:50.044Z,101186.65
2024-01-20T07:02:02.266Z,101188.51
2024-01-20T07:04:14.353Z,101192.13
2024-01-20T07:06:26.468Z,101189.08
2024-01-20T07:08:38.532Z,101188.43
2024-01-20T07:10:51.144Z,101197.98
2024-01-20T07:13:03.347Z,101193.38
2024-01-20T07:15:15.477Z,101192.23
2024-01-20T07:17:27.619Z,101205.49
2024-01-20T07:19:39.587Z,101191.84
2024-01-20T07:21:51.321Z,101204.38
2024-01-20T07:24:03.339Z,101207.11
2024-01-20T07:26:16.762Z,101208.31
2024-01-20T07:28:28.809Z,101206.58
2024-01-20T07:30:40.756Z,101203.66
2024-01-20T07:32:52.565Z,101209.20
2024-01-20T07:35:05.927Z,101196.66
2024-01-20T07:37:20.032Z,101201.71
2024-01-20T07:39:32.664Z,101195.89
2024-01-20T07:41:45.116Z,101193.23
2024-01-20T07:43:57.012Z,101197.81
2024-01-20T07:46:09.462Z,101198.65
2024-01-20T07:48:22.231Z,101202.79
2024-01-20T07:50:34.223Z,101205.76
2024-01-20T07:52:45.913Z,101194.81
2024-01-20T07:54:57.712Z,101205.59
2024-01-20T07:57:09.748Z,101206.85
2024-01-20T07:59:21.454Z,101206.45
2024-01-20T08:01:33.317Z,101211.30
2024-01-20T08:03:45.330Z,101211.52
2024-01-20T08:05:57.210Z,101206.68
2024-01-20T08:08:09.057Z,101208.08
2024-01-20T08:10:21.977Z,101216.14
2024-01-20T08:12:34.328Z,101206.14
2024-01-20T08:14:46.472Z,101204.53
2024-01-20T08:16:58.669Z,101198.17
2024-01-20T08:19:10.624Z,101199.73
2024-01-20T08:21:23.345Z,101208.66
2024-01-20T08:23:35.377Z,101199.77
2024-01-20T08:25:47.776Z,101201.64
2024-01-20T08:27:59.268Z,101200.38
2024-01-20T08:30:12.349Z,101199.36
2024-01-20T08:32:24.288Z,101193.73
2024-01-20T08:34:36.388Z,101203.47
2024-01-20T08:36:49.385Z,101201.27
2024-01-20T08:39:02.947Z,101213.04
2024-01-20T08:41:14.810Z,101214.55
2024-01-20T08:43:26.802Z,101202.55
2024-01-20T08:45:38.755Z,101212.48
2024-01-20T08:47:55.863Z,101219.38
2024-01-20T08:50:08.781Z,101219.60
2024-01-20T08:52:20.747Z,101227.68
2024-01-20T08:54:32.885Z,101216.66
2024-01-20T08:56:47.107Z,101237.33
2024-01-20T08:59:00.222Z,101221.02
2024-01-20T09:01:13.526Z,101217.04
2024-01-20T09:03:27.006Z,101235.11
2024-01-20T09:05:39.880Z,101230.03
2024-01-20T09:07:52.674Z,101232.98
2024-01-20T09:10:06.267Z,101231.42
2024-01-20T09:12:19.607Z,101244.23
2024-01-20T09:14:32.759Z,101226.86
2024-01-20T09:16:45.666Z,101244.88
2024-01-20T09:18:57.925Z,101244.02
2024-01-20T09:21:13.462Z,101244.70
2024-01-20T09:23:25.331Z,101239.23
2024-01-20T09:25:37.425Z,101245.88
2024-01-20T09:27:49.724Z,101248.83
2024-01-20T09:30:02.754Z,101239.17
2024-01-20T09:32:15.144Z,101236.95
2024-01-20T09:34:27.545Z,101231.31
2024-01-20T09:36:39.864Z,101244.80
2024-01-20T09:38:52.275Z,101252.27
2024-01-20T09:41:10.984Z,101241.09
2024-01-20T09:43:22.975Z,101240.73
2024-01-20T09:45:40.259Z,101243.55
2024-01-20T09:47:52.409Z,101239.98
2024-01-20T09:50:06.139Z,101238.52
2024-01-20T09:52:30.849Z,101248.88
2024-01-20T09:54:54.402Z,101251.20
2024-01-20T09:57:06.534Z,101239.73
2024-01-20T09:59:19.825Z,101251.83
2024-01-20T10:01:32.513Z,101250.94
2024-01-20T10:03:45.050Z,101255.38
2024-01-20T10:05:59.256Z,101253.61
2024-01-20T10:08:12.206Z,101257.11
2024-01-20T10:10:24.505Z,101256.39
2024-01-20T10:12:37.554Z,101249.95
2024-01-20T10:14:49.312Z,101257.73
2024-01-20T10:17:01.357Z,101255.77
2024-01-20T10:19:13.267Z,101264.33
2024-01-20T10:21:25.031Z,101249.65
2024-01-20T10:23:39.030Z,101254.64
2024-01-20T10:26:18.721Z,101253.91
2024-01-20T10:28:31.196Z,101252.13
2024-01-20T10:30:44.028Z,101244.14
2024-01-20T10:33:08.308Z,101244.91
2024-01-20T10:35:22.889Z,101241.70
2024-01-20T10:37:36.637Z,101236.17
2024-01-20T10:39:48.710Z,101239.41
2024-01-20T10:42:03.699Z,101233.71
2024-01-20T10:44:17.868Z,101245.19
2024-01-20T10:46:32.635Z,101240.12
2024-01-20T10:48:51.808Z,101241.89
2024-01-20T10:51:10.316Z,101239.19
2024-01-20T10:53:24.878Z,101237.98
2024-01-20T10:55:37.540Z,101229.63
2024-01-20T10:57:51.541Z,101236.16
2024-01-20T11:00:06.033Z,101231.59
2024-01-20T11:02:18.179Z,101228.86
2024-01-20T11:04:35.647Z,101232.34
2024-01-20T11:06:48.248Z,101238.11
2024-01-20T11:09:02.583Z,101225.58
2024-01-20T11:11:15.335Z,101240.74
2024-01-20T11:13:28.015Z,101232.00
2024-01-20T11:15:41.568Z,101233.76
2024-01-20T11:17:53.685Z,101234.00
2024-01-20T11:20:09.170Z,101224.48
2024-01-20T11:22:35.531Z,101228.09
2024-01-20T11:24:47.888Z,101234.09
2024-01-20T11:27:04.548Z,101223.96
2024-01-20T11:29:16.832Z,101218.67
2024-01-20T11:31:31.944Z,101230.77
2024-01-20T11:33:44.373Z,101227.79
2024-01-20T11:35:56.469Z,101233.27
2024-01-20T11:38:08.983Z,101228.90
2024-01-20T11:40:20.568Z,101234.70
2024-01-20T11:42:33.717Z,101235.11
2024-01-20T11:44:45.275Z,101235.44
2024-01-20T11:46:57.002Z,101235.64
2024-01-20T11:49:08.883Z,101227.38
2024-01-20T11:51:22.231Z,101222.18
2024-01-20T11:53:35.400Z,101223.30
2024-01-20T11:56:01.380Z,101223.80
2024-01-20T11:58:13.510Z,101224.02
2024-01-20T12:00:25.418Z,101226.41
2024-01-20T12:02:38.330Z,101234.00
2024-01-20T12:04:50.561Z,101232.47
2024-01-20T12:07:02.960Z,101225.57
2024-01-20T12:09:14.853Z,101230.80
2024-01-20T12:11:27.791Z,101229.79
2024-01-20T12:13:39.630Z,101230.40
2024-01-20T12:15:52.457Z,101229.25
2024-01-20T12:18:05.407Z,101237.64
2024-01-20T12:20:17.352Z,101234.93
2024-01-20T12:22:32.643Z,101233.65
2024-01-20T12:24:51.201Z,101231.37
2024-01-20T12:27:04.040Z,101232.33
2024-01-20T12:29:16.333Z,101235.84
2024-01-20T12:31:28.591Z,101240.08
2024-01-20T12:33:41.120Z,101238.89
2024-01-20T12:35:52.999Z,101239.67
2024-01-20T12:38:07.077Z,101237.98
2024-01-20T12:40:20.258Z,101236.89
2024-01-20T12:42:31.963Z,101230.98
2024-01-20T12:44:43.691Z,101240.10
2024-01-20T12:46:56.556Z,101241.00
2024-01-20T12:49:09.197Z,101240.88
2024-01-20T12:51:21.431Z,101241.39
2024-01-20T12:53:34.590Z,101250.11
2024-01-20T12:55:50.573Z,101253.58
2024-01-20T12:58:02.565Z,101257.65
2024-01-20T13:00:15.413Z,101259.02
2024-01-20T13:02:27.211Z,101263.38
2024-01-20T13:04:41.026Z,101271.40
2024-01-20T13:06:52.970Z,101274.31
2024-01-20T13:09:05.367Z,101269.52
2024-01-20T13:11:18.012Z,101275.61
2024-01-20T13:13:30.286Z,101282.33
2024-01-20T13:15:42.081Z,101282.78
2024-01-20T13:17:54.981Z,101287.10
2024-01-20T13:20:08.673Z,101284.17
2024-01-20T13:22:20.445Z,101288.86
2024-01-20T13:24:32.562Z,101293.29
2024-01-20T13:26:44.715Z,101290.16
2024-01-20T13:28:59.706Z,101291.50
2024-01-20T13:31:12.011Z,101292.35
2024-01-20T13:33:26.416Z,101299.23
2024-01-20T13:35:39.108Z,101296.80
2024-01-20T13:37:51.775Z,101298.71
2024-01-20T13:40:06.407Z,101302.67
2024-01-20T13:42:18.256Z,101303.86
2024-01-20T13:44:30.329Z,101309.92
2024-01-20T13:46:42.218Z,101313.98
2024-01-20T13:48:54.073Z,101313.95
2024-01-20T13:51:05.808Z,101316.69
2024-01-20T13:53:18.295Z,101316.77
2024-01-20T13:55:30.507Z,101324.74
2024-01-20T13:57:42.644Z,101329.71
2024-01-20T13:59:54.592Z,101335.33
2024-01-20T14:02:06.282Z,101340.64
2024-01-20T14:04:18.222Z,101341.71
2024-01-20T14:06:30.563Z,101341.54
2024-01-20T14:08:42.977Z,101336.23
2024-01-20T14:10:54.984Z,101338.71
2024-01-20T14:13:07.184Z,101338.70
2024-01-20T14:15:19.799Z,101342.73
2024-01-20T14:17:31.919Z,101347.81
2024-01-20T14:19:44.160Z,101347.65
2024-01-20T14:21:56.585Z,101352.66
2024-01-20T14:24:09.229Z,101359.46
2024-01-20T14:26:21.601Z,101354.80
2024-01-20T14:28:33.346Z,101357.31
2024-01-20T14:30:46.119Z,101363.56
2024-01-20T14:32:58.333Z,101368.25
2024-01-20T14:35:10.730Z,101367.54
2024-01-20T14:37:22.601Z,101368.95
2024-01-20T14:39:34.211Z,101374.29
2024-01-20T14:41:46.695Z,101381.02
2024-01-20T14:43:58.690Z,101385.56
2024-01-20T14:46:10.789Z,101388.73
2024-01-20T14:48:22.813Z,101385.15
2024-01-20T14:50:35.140Z,101380.52
2024-01-20T14:52:47.486Z,101387.15
2024-01-20T14:54:59.991Z,101388.92
2024-01-20T14:57:11.989Z,101399.30
2024-01-20T14:59:23.829Z,101398.91
2024-01-20T15:01:37.352Z,101405.21
2024-01-20T15:03:49.618Z,101408.42
2024-01-20T15:06:01.773Z,101416.27
2024-01-20T15:08:13.855Z,101418.48
2024-01-20T15:10:25.706Z,101413.88
2024-01-20T15:12:37.718Z,101418.06
2024-01-20T15:14:50.176Z,101420.43
2024-01-20T15:17:01.784Z,101421.73
2024-01-20T15:19:13.946Z,101421.84
2024-01-20T15:21:25.913Z,101428.54
2024-01-20T15:23:37.671Z,101429.05
2024-01-20T15:25:51.289Z,101430.36
2024-01-20T15:28:05.084Z,101436.31
2024-01-20T15:30:17.201Z,101441.64
2024-01-20T15:32:29.015Z,101447.46
2024-01-20T15:34:41.536Z,101452.89
2024-01-20T15:36:53.217Z,101457.02
2024-01-20T15:39:05.107Z,101456.09
2024-01-20T15:41:17.209Z,101456.23
2024-01-20T15:43:29.753Z,101464.48
2024-01-20T15:45:41.377Z,101461.10
2024-01-20T15:47:53.127Z,101464.73
2024-01-20T15:50:05.560Z,101467.60
2024-01-20T15:52:17.590Z,101467.38
2024-01-20T15:54:29.531Z,101470.99
2024-01-20T15:56:42.807Z,101468.70
2024-01-20T15:58:54.229Z,101471.88
2024-01-20T16:01:06.271Z,101471.80
2024-01-20T16:03:18.455Z,101474.52
2024-01-20T16:05:30.479Z,101478.58
2024-01-20T16:07:42.470Z,101477.91
2024-01-20T16:09:54.612Z,101478.90
2024-01-20T16:12:07.494Z,101486.73
2024-01-20T16:14:23.827Z,101488.23
2024-01-20T16:16:35.824Z,101489.69
2024-01-20T16:18:47.750Z,101497.97
2024-01-20T16:21:02.804Z,101500.73
2024-01-20T16:23:18.118Z,101506.59
2024-01-20T16:25:30.095Z,101509.48
2024-01-20T16:27:42.355Z,101507.02
2024-01-20T16:29:54.294Z,101506.14
2024-01-20T16:32:10.857Z,101505.02
2024-01-20T16:34:22.698Z,101508.77
2024-01-20T16:36:35.268Z,101510.71
2024-01-20T16:38:47.394Z,101508.06
2024-01-20T16:41:00.825Z,101510.01
2024-01-20T16:43:12.716Z,101510.43
2024-01-20T16:45:25.593Z,101512.39
2024-01-20T16:47:37.846Z,101518.52
2024-01-20T16:49:49.732Z,101519.30
2024-01-20T16:52:03.715Z,101521.24
2024-01-20T16:54:15.880Z,101517.83
2024-01-20T16:56:27.960Z,101516.89
2024-01-20T16:58:40.074Z,101524.21
2024-01-20T17:00:51.839Z,101531.79
2024-01-20T17:03:05.165Z,101539.67
2024-01-20T17:05:18.977Z,101548.58
2024-01-20T17:07:30.909Z,101551.88
2024-01-20T17:09:44.086Z,101556.59
2024-01-20T17:11:56.125Z,101554.96
2024-01-20T17:14:08.429Z,101559.81
2024-01-20T17:16:20.852Z,101560.86
2024-01-20T17:18:36.274Z,101567.58
2024-01-20T17:20:48.207Z,101569.10
2024-01-20T17:23:04.495Z,101568.47
2024-01-20T17:25:16.694Z,101568.89
2024-01-20T17:27:29.226Z,101576.77
2024-01-20T17:29:42.811Z,101574.95
2024-01-20T17:32:02.006Z,101581.79
2024-01-20T17:34:16.579Z,101590.17
2024-01-20T17:36:28.538Z,101596.14
2024-01-20T17:38:41.276Z,101601.04
2024-01-20T17:40:52.848Z,101598.98
2024-01-20T17:43:04.949Z,101604.75
2024-01-20T17:45:18.015Z,101612.67
2024-01-20T17:47:30.338Z,101611.14
2024-01-20T17:49:42.795Z,101615.85
2024-01-20T17:51:55.291Z,101619.96
2024-01-20T17:54:08.853Z,101621.46
2024-01-20T17:56:21.631Z,101625.52
2024-01-20T17:58:34.455Z,101626.16
2024-01-20T18:00:46.599Z,101629.33
2024-01-20T18:02:58.580Z,101626.05
2024-01-20T18:05:10.674Z,101626.59
2024-01-20T18:07:22.819Z,101628.47
2024-01-20T18:09:35.136Z,101632.06
2024-01-20T18:11:49.979Z,101638.04
2024-01-20T18:14:02.299Z,101642.54
2024-01-20T18:16:13.813Z,101646.92
2024-01-20T18:18:26.415Z,101649.41
2024-01-20T18:20:38.270Z,101655.66
2024-01-20T18:22:51.028Z,101658.71
2024-01-20T18:25:03.388Z,101666.06
2024-01-20T18:27:15.610Z,101667.91
2024-01-20T18:29:27.886Z,101666.55
2024-01-20T18:31:39.939Z,101678.10
2024-01-20T18:33:52.062Z,101678.05
2024-01-20T18:36:05.174Z,101684.07
2024-01-20T18:38:17.198Z,101693.91
2024-01-20T18:40:29.298Z,101695.61
2024-01-20T18:42:41.203Z,101695.58
2024-01-20T18:44:54.307Z,101701.77
2024-01-20T18:47:10.912Z,101703.52
2024-01-20T18:49:22.846Z,101701.41
2024-01-20T18:51:34.872Z,101702.43
2024-01-20T18:53:46.381Z,101708.40
2024-01-20T18:55:59.100Z,101707.20
2024-01-20T18:58:13.269Z,101705.64
2024-01-20T19:00:25.510Z,101708.05
2024-01-20T19:02:37.534Z,101717.08
2024-01-20T19:04:50.008Z,101721.05
2024-01-20T19:07:06.036Z,101720.91
2024-01-20T19:09:17.866Z,101722.14
2024-01-20T19:11:29.463Z,101727.04
2024-01-20T19:13:41.507Z,101733.64
2024-01-20T19:15:55.649Z,101734.35
2024-01-20T19:18:08.318Z,101732.06
2024-01-20T19:20:25.202Z,101734.84
2024-01-20T19:22:38.295Z,101736.59
2024-01-20T19:24:50.708Z,101743.42
2024-01-20T19:27:02.426Z,101744.90
2024-01-20T19:29:14.276Z,101746.55
2024-01-20T19:31:26.272Z,101750.67
2024-01-20T19:33:46.724Z,101753.45
2024-01-20T19:35:58.877Z,101758.93
2024-01-20T19:38:11.118Z,101763.90
2024-01-20T19:40:23.266Z,101770.73
2024-01-20T19:42:35.273Z,101768.77
2024-01-20T19:44:48.693Z,101772.23
2024-01-20T19:47:00.579Z,101773.99
2024-01-20T19:49:13.926Z,101778.32
2024-01-20T19:51:27.782Z,101777.90
2024-01-20T19:53:39.741Z,101783.15
2024-01-20T19:55:52.514Z,101785.88
2024-01-20T19:58:04.226Z,101788.90
2024-01-20T20:00:21.031Z,101786.61
2024-01-20T20:02:36.215Z,101790.91
2024-01-20T20:04:48.535Z,101794.62
2024-01-20T20:07:01.370Z,101801.71
2024-01-20T20:09:14.384Z,101801.76
2024-01-20T20:11:26.400Z,101802.46
2024-01-20T20:13:38.752Z,101804.42
2024-01-20T20:15:51.017Z,101809.92
2024-01-20T20:18:03.096Z,101809.61
2024-01-20T20:20:15.760Z,101810.93
2024-01-20T20:22:27.652Z,101812.70
2024-01-20T20:24:40.309Z,101815.77
2024-01-20T20:26:57.631Z,101819.61
2024-01-20T20:29:14.460Z,101818.23
2024-01-20T20:31:28.350Z,101818.35
2024-01-20T20:33:42.376Z,101816.78
2024-01-20T20:35:55.092Z,101821.50
2024-01-20T20:38:07.724Z,101825.83
2024-01-20T20:40:20.507Z,101830.23
2024-01-20T20:42:33.580Z,101836.52
2024-01-20T20:44:46.856Z,101837.55
2024-01-20T20:47:01.959Z,101841.82
2024-01-20T20:49:14.434Z,101847.84
2024-01-20T20:51:25.922Z,101850.20
2024-01-20T20:53:38.208Z,101853.45
2024-01-20T20:55:50.716Z,101847.98
2024-01-20T20:58:02.502Z,101854.52
2024-01-20T21:00:16.856Z,101853.81
2024-01-20T21:02:29.122Z,101852.86
2024-01-20T21:04:40.797Z,101855.23
2024-01-20T21:06:52.905Z,101856.89
2024-01-20T21:09:05.024Z,101854.18
2024-01-20T21:11:16.727Z,101854.93
2024-01-20T21:13:28.832Z,101854.00
2024-01-20T21:15:42.077Z,101854.08
2024-01-20T21:17:54.070Z,101852.90
2024-01-20T21:20:08.084Z,101852.88
2024-01-20T21:22:21.614Z,101863.22
2024-01-20T21:24:33.457Z,101864.66
2024-01-20T21:26:45.305Z,101861.98
2024-01-20T21:28:57.188Z,101858.86
2024-01-20T21:31:10.072Z,101862.08
2024-01-20T21:33:22.821Z,101866.59
2024-01-20T21:35:34.914Z,101865.44
2024-01-20T21:37:46.609Z,101867.59
2024-01-20T21:39:58.597Z,101866.99
2024-01-20T21:42:16.197Z,101864.70
2024-01-20T21:44:28.126Z,101871.48
2024-01-20T21:46:40.420Z,101875.82
2024-01-20T21:48:52.553Z,101877.69
2024-01-20T21:51:05.079Z,101880.58
2024-01-20T21:53:17.836Z,101879.60
2024-01-20T21:55:30.040Z,101882.90
2024-01-20T21:57:42.931Z,101889.20
2024-01-20T21:59:56.053Z,101889.89
2024-01-20T22:02:08.069Z,101891.92
2024-01-20T22:04:20.472Z,101897.23
2024-01-20T22:06:32.938Z,101901.73
2024-01-20T22:08:44.336Z,101899.17
2024-01-20T22:10:56.475Z,101901.05
2024-01-20T22:13:08.199Z,101901.54
2024-01-20T22:15:20.593Z,101900.29
2024-01-20T22:17:32.292Z,101905.15
2024-01-20T22:19:44.042Z,101911.65
2024-01-20T22:21:55.637Z,101911.75
2024-01-20T22:24:07.756Z,101914.90
2024-01-20T22:26:20.919Z,101920.52
2024-01-20T22:28:32.247Z,101921.42
2024-01-20T22:30:44.347Z,101919.63
2024-01-20T22:32:57.597Z,101920.34
2024-01-20T22:35:09.623Z,101922.09
2024-01-20T22:37:21.647Z,101932.55
2024-01-20T22:39:41.607Z,101938.25
2024-01-20T22:41:53.700Z,101936.67
2024-01-20T22:44:08.927Z,101939.89
2024-01-20T22:46:20.871Z,101942.33
2024-01-20T22:48:36.939Z,101943.52
2024-01-20T22:50:49.870Z,101944.85
2024-01-20T22:53:02.490Z,101943.23
2024-01-20T22:55:14.413Z,101944.24
2024-01-20T22:57:26.157Z,101946.05
2024-01-20T22:59:38.204Z,101953.19
2024-01-20T23:01:50.390Z,101957.05
2024-01-20T23:04:02.948Z,101958.19
2024-01-20T23:06:16.053Z,101957.06
2024-01-20T23:08:28.124Z,101957.05
2024-01-20T23:10:40.741Z,101960.52
2024-01-20T23:12:53.848Z,101964.17
2024-01-20T23:15:08.359Z,101962.92
2024-01-20T23:17:20.786Z,101961.73
2024-01-20T23:19:33.127Z,101960.48
2024-01-20T23:21:45.394Z,101959.71
2024-01-20T23:23:58.253Z,101954.89
2024-01-20T23:26:15.612Z,101956.77
2024-01-20T23:28:30.570Z,101961.09
2024-01-20T23:30:46.790Z,101960.70
2024-01-20T23:33:01.483Z,101962.11
2024-01-20T23:35:13.569Z,101963.98
2024-01-20T23:37:25.287Z,101962.85
2024-01-20T23:39:37.732Z,101965.27
2024-01-20T23:42:33.883Z,101968.84
2024-01-20T23:44:46.242Z,101971.04
2024-01-20T23:47:49.015Z,101965.23
2024-01-20T23:50:01.748Z,101970.88
2024-01-20T23:52:13.601Z,101973.35
2024-01-20T23:54:25.349Z,101972.11
2024-01-20T23:56:39.095Z,101968.91
2024-01-20T23:58:53.031Z,101968.46
